sensor_id;sensor_type;location;lat;lon;timestamp;P1;durP1;ratioP1;P2;durP2;ratioP2
64291;SDS011;50628;51.008;13.658;2022-08-30T00:02:01;5.77;;;3.57;;
64291;SDS011;50628;51.008;13.658;2022-08-30T00:07:03;4.87;;;4.00;;
64291;SDS011;50628;51.008;13.658;2022-08-30T00:12:05;5.57;;;4.23;;
64291;SDS011;50628;51.008;13.658;2022-08-30T00:17:09;10.50;;;3.70;;
64291;SDS011;50628;51.008;13.658;2022-08-30T00:22:11;7.33;;;3.77;;
64291;SDS011;50628;51.008;13.658;2022-08-30T00:27:12;9.80;;;3.97;;
64291;SDS011;50628;51.008;13.658;2022-08-30T00:32:16;6.43;;;4.20;;
64291;SDS011;50628;51.008;13.658;2022-08-30T00:37:20;7.47;;;4.10;;
64291;SDS011;50628;51.008;13.658;2022-08-30T00:42:22;6.33;;;3.77;;
64291;SDS011;50628;51.008;13.658;2022-08-30T00:47:26;6.97;;;4.60;;
64291;SDS011;50628;51.008;13.658;2022-08-30T00:52:28;9.77;;;4.50;;
64291;SDS011;50628;51.008;13.658;2022-08-30T00:57:30;7.80;;;4.13;;
64291;SDS011;50628;51.008;13.658;2022-08-30T01:02:35;6.80;;;3.87;;
64291;SDS011;50628;51.008;13.658;2022-08-30T01:07:37;6.33;;;4.27;;
64291;SDS011;50628;51.008;13.658;2022-08-30T01:12:39;7.20;;;3.97;;
64291;SDS011;50628;51.008;13.658;2022-08-30T01:17:45;7.50;;;4.33;;
64291;SDS011;50628;51.008;13.658;2022-08-30T01:22:57;6.47;;;3.73;;
64291;SDS011;50628;51.008;13.658;2022-08-30T01:28:05;6.57;;;4.07;;
64291;SDS011;50628;51.008;13.658;2022-08-30T01:33:09;5.60;;;3.50;;
64291;SDS011;50628;51.008;13.658;2022-08-30T01:38:13;7.03;;;4.00;;
64291;SDS011;50628;51.008;13.658;2022-08-30T01:43:18;8.27;;;4.10;;
64291;SDS011;50628;51.008;13.658;2022-08-30T01:48:20;9.43;;;4.50;;
64291;SDS011;50628;51.008;13.658;2022-08-30T01:53:23;8.33;;;4.13;;
64291;SDS011;50628;51.008;13.658;2022-08-30T01:58:24;6.83;;;4.57;;
64291;SDS011;50628;51.008;13.658;2022-08-30T02:03:27;6.97;;;4.73;;
64291;SDS011;50628;51.008;13.658;2022-08-30T02:08:35;5.70;;;3.97;;
64291;SDS011;50628;51.008;13.658;2022-08-30T02:13:39;8.73;;;3.97;;
64291;SDS011;50628;51.008;13.658;2022-08-30T02:18:43;7.93;;;4.23;;
64291;SDS011;50628;51.008;13.658;2022-08-30T02:23:46;9.77;;;5.00;;
64291;SDS011;50628;51.008;13.658;2022-08-30T02:28:48;4.87;;;4.00;;
64291;SDS011;50628;51.008;13.658;2022-08-30T02:33:51;10.40;;;5.00;;
64291;SDS011;50628;51.008;13.658;2022-08-30T02:38:56;9.40;;;4.67;;
64291;SDS011;50628;51.008;13.658;2022-08-30T02:43:58;7.70;;;4.50;;
64291;SDS011;50628;51.008;13.658;2022-08-30T02:48:59;7.00;;;4.70;;
64291;SDS011;50628;51.008;13.658;2022-08-30T02:54:02;8.53;;;4.50;;
64291;SDS011;50628;51.008;13.658;2022-08-30T02:59:04;8.50;;;4.77;;
64291;SDS011;50628;51.008;13.658;2022-08-30T03:04:06;7.03;;;4.70;;
64291;SDS011;50628;51.008;13.658;2022-08-30T03:09:09;6.90;;;4.20;;
64291;SDS011;50628;51.008;13.658;2022-08-30T03:14:11;6.17;;;4.40;;
64291;SDS011;50628;51.008;13.658;2022-08-30T03:19:13;7.70;;;4.40;;
64291;SDS011;50628;51.008;13.658;2022-08-30T03:24:16;10.20;;;5.03;;
64291;SDS011;50628;51.008;13.658;2022-08-30T03:29:18;7.27;;;4.90;;
64291;SDS011;50628;51.008;13.658;2022-08-30T03:34:20;14.13;;;5.40;;
64291;SDS011;50628;51.008;13.658;2022-08-30T03:39:24;22.30;;;16.23;;
64291;SDS011;50628;51.008;13.658;2022-08-30T03:44:26;8.70;;;5.00;;
64291;SDS011;50628;51.008;13.658;2022-08-30T03:49:28;8.83;;;4.97;;
64291;SDS011;50628;51.008;13.658;2022-08-30T03:54:31;9.23;;;5.10;;
64291;SDS011;50628;51.008;13.658;2022-08-30T03:59:33;12.83;;;5.20;;
64291;SDS011;50628;51.008;13.658;2022-08-30T04:04:35;6.93;;;5.33;;
64291;SDS011;50628;51.008;13.658;2022-08-30T04:09:38;9.50;;;5.60;;
64291;SDS011;50628;51.008;13.658;2022-08-30T04:14:40;8.53;;;4.23;;
64291;SDS011;50628;51.008;13.658;2022-08-30T04:19:42;7.70;;;4.90;;
64291;SDS011;50628;51.008;13.658;2022-08-30T04:24:45;7.03;;;4.87;;
64291;SDS011;50628;51.008;13.658;2022-08-30T04:29:47;7.90;;;4.57;;
64291;SDS011;50628;51.008;13.658;2022-08-30T04:34:49;11.60;;;5.47;;
64291;SDS011;50628;51.008;13.658;2022-08-30T04:39:55;9.17;;;5.47;;
64291;SDS011;50628;51.008;13.658;2022-08-30T04:45:00;14.20;;;6.43;;
64291;SDS011;50628;51.008;13.658;2022-08-30T04:50:03;8.93;;;5.07;;
64291;SDS011;50628;51.008;13.658;2022-08-30T04:55:08;8.27;;;4.80;;
64291;SDS011;50628;51.008;13.658;2022-08-30T05:00:11;12.73;;;6.23;;
64291;SDS011;50628;51.008;13.658;2022-08-30T05:05:14;14.70;;;5.53;;
64291;SDS011;50628;51.008;13.658;2022-08-30T05:10:36;10.90;;;5.70;;
64291;SDS011;50628;51.008;13.658;2022-08-30T05:15:39;10.63;;;6.93;;
64291;SDS011;50628;51.008;13.658;2022-08-30T05:20:41;9.80;;;6.03;;
64291;SDS011;50628;51.008;13.658;2022-08-30T05:25:44;11.37;;;5.50;;
64291;SDS011;50628;51.008;13.658;2022-08-30T05:30:46;16.53;;;5.87;;
64291;SDS011;50628;51.008;13.658;2022-08-30T05:35:48;11.73;;;6.20;;
64291;SDS011;50628;51.008;13.658;2022-08-30T05:40:52;9.73;;;5.07;;
64291;SDS011;50628;51.008;13.658;2022-08-30T05:45:57;10.57;;;5.03;;
64291;SDS011;50628;51.008;13.658;2022-08-30T05:51:00;10.87;;;4.93;;
64291;SDS011;50628;51.008;13.658;2022-08-30T05:56:07;11.47;;;5.43;;
64291;SDS011;50628;51.008;13.658;2022-08-30T06:01:17;9.73;;;5.77;;
64291;SDS011;50628;51.008;13.658;2022-08-30T06:06:19;16.53;;;6.37;;
64291;SDS011;50628;51.008;13.658;2022-08-30T06:11:23;10.93;;;5.70;;
64291;SDS011;50628;51.008;13.658;2022-08-30T06:16:26;12.43;;;5.20;;
64291;SDS011;50628;51.008;13.658;2022-08-30T06:21:29;7.40;;;5.07;;
64291;SDS011;50628;51.008;13.658;2022-08-30T06:26:36;7.33;;;5.30;;
64291;SDS011;50628;51.008;13.658;2022-08-30T06:31:40;8.73;;;4.87;;
64291;SDS011;50628;51.008;13.658;2022-08-30T06:36:42;12.37;;;5.20;;
64291;SDS011;50628;51.008;13.658;2022-08-30T06:41:45;10.37;;;5.07;;
64291;SDS011;50628;51.008;13.658;2022-08-30T06:47:00;9.23;;;5.30;;
64291;SDS011;50628;51.008;13.658;2022-08-30T06:52:02;13.65;;;5.88;;
64291;SDS011;50628;51.008;13.658;2022-08-30T06:57:05;15.60;;;6.03;;
64291;SDS011;50628;51.008;13.658;2022-08-30T07:02:07;8.70;;;5.32;;
64291;SDS011;50628;51.008;13.658;2022-08-30T07:07:09;13.38;;;5.32;;
64291;SDS011;50628;51.008;13.658;2022-08-30T07:12:12;16.30;;;5.85;;
64291;SDS011;50628;51.008;13.658;2022-08-30T07:17:14;11.38;;;4.75;;
64291;SDS011;50628;51.008;13.658;2022-08-30T07:22:33;15.40;;;5.32;;
64291;SDS011;50628;51.008;13.658;2022-08-30T07:27:36;11.50;;;6.18;;
64291;SDS011;50628;51.008;13.658;2022-08-30T07:32:38;22.63;;;5.57;;
64291;SDS011;50628;51.008;13.658;2022-08-30T07:37:41;11.23;;;4.25;;
64291;SDS011;50628;51.008;13.658;2022-08-30T07:42:44;7.70;;;4.20;;
64291;SDS011;50628;51.008;13.658;2022-08-30T07:47:46;8.80;;;4.10;;
64291;SDS011;50628;51.008;13.658;2022-08-30T07:52:47;13.02;;;4.22;;
64291;SDS011;50628;51.008;13.658;2022-08-30T07:57:50;12.48;;;5.03;;
64291;SDS011;50628;51.008;13.658;2022-08-30T08:02:52;5.55;;;3.17;;
64291;SDS011;50628;51.008;13.658;2022-08-30T08:07:54;9.82;;;3.55;;
64291;SDS011;50628;51.008;13.658;2022-08-30T08:12:57;14.18;;;4.20;;
64291;SDS011;50628;51.008;13.658;2022-08-30T08:17:59;10.23;;;3.58;;
64291;SDS011;50628;51.008;13.658;2022-08-30T08:23:01;9.10;;;3.67;;
64291;SDS011;50628;51.008;13.658;2022-08-30T08:28:05;7.13;;;3.40;;
64291;SDS011;50628;51.008;13.658;2022-08-30T08:33:07;16.77;;;3.88;;
64291;SDS011;50628;51.008;13.658;2022-08-30T08:38:12;9.07;;;3.17;;
64291;SDS011;50628;51.008;13.658;2022-08-30T08:43:16;5.82;;;3.20;;
64291;SDS011;50628;51.008;13.658;2022-08-30T08:48:25;6.63;;;4.05;;
64291;SDS011;50628;51.008;13.658;2022-08-30T08:53:32;5.35;;;3.38;;
64291;SDS011;50628;51.008;13.658;2022-08-30T08:58:39;6.18;;;2.97;;
64291;SDS011;50628;51.008;13.658;2022-08-30T09:03:43;8.13;;;2.63;;
64291;SDS011;50628;51.008;13.658;2022-08-30T09:08:46;6.75;;;2.70;;
64291;SDS011;50628;51.008;13.658;2022-08-30T09:13:49;9.20;;;2.83;;
64291;SDS011;50628;51.008;13.658;2022-08-30T09:18:50;14.25;;;3.25;;
64291;SDS011;50628;51.008;13.658;2022-08-30T09:23:54;10.48;;;2.55;;
64291;SDS011;50628;51.008;13.658;2022-08-30T09:29:00;7.28;;;1.70;;
64291;SDS011;50628;51.008;13.658;2022-08-30T09:34:05;5.20;;;2.63;;
64291;SDS011;50628;51.008;13.658;2022-08-30T09:39:13;5.88;;;2.38;;
64291;SDS011;50628;51.008;13.658;2022-08-30T09:44:19;8.07;;;3.85;;
64291;SDS011;50628;51.008;13.658;2022-08-30T09:49:33;6.97;;;1.67;;
64291;SDS011;50628;51.008;13.658;2022-08-30T09:54:58;9.93;;;2.40;;
64291;SDS011;50628;51.008;13.658;2022-08-30T10:00:13;6.07;;;2.35;;
64291;SDS011;50628;51.008;13.658;2022-08-30T10:05:19;3.58;;;1.90;;
64291;SDS011;50628;51.008;13.658;2022-08-30T10:11:04;3.42;;;1.70;;
64291;SDS011;50628;51.008;13.658;2022-08-30T10:16:13;9.02;;;2.65;;
64291;SDS011;50628;51.008;13.658;2022-08-30T10:21:22;3.60;;;2.83;;
64291;SDS011;50628;51.008;13.658;2022-08-30T10:26:29;5.78;;;3.00;;
64291;SDS011;50628;51.008;13.658;2022-08-30T10:31:38;10.23;;;3.88;;
64291;SDS011;50628;51.008;13.658;2022-08-30T10:36:46;8.75;;;3.75;;
64291;SDS011;50628;51.008;13.658;2022-08-30T10:41:52;4.55;;;2.20;;
64291;SDS011;50628;51.008;13.658;2022-08-30T10:47:08;7.20;;;2.65;;
64291;SDS011;50628;51.008;13.658;2022-08-30T10:52:19;6.68;;;2.78;;
64291;SDS011;50628;51.008;13.658;2022-08-30T10:57:25;7.00;;;3.40;;
64291;SDS011;50628;51.008;13.658;2022-08-30T11:02:34;16.75;;;4.43;;
64291;SDS011;50628;51.008;13.658;2022-08-30T11:07:55;5.32;;;3.17;;
64291;SDS011;50628;51.008;13.658;2022-08-30T11:13:05;5.93;;;3.03;;
64291;SDS011;50628;51.008;13.658;2022-08-30T11:18:12;12.23;;;3.30;;
64291;SDS011;50628;51.008;13.658;2022-08-30T11:23:19;5.72;;;2.15;;
64291;SDS011;50628;51.008;13.658;2022-08-30T11:34:06;3.70;;;1.80;;
64291;SDS011;50628;51.008;13.658;2022-08-30T11:39:09;3.90;;;2.45;;
64291;SDS011;50628;51.008;13.658;2022-08-30T11:44:24;3.55;;;1.73;;
64291;SDS011;50628;51.008;13.658;2022-08-30T11:49:41;2.35;;;1.55;;
64291;SDS011;50628;51.008;13.658;2022-08-30T11:54:56;5.13;;;2.00;;
64291;SDS011;50628;51.008;13.658;2022-08-30T12:00:25;5.78;;;1.83;;
64291;SDS011;50628;51.008;13.658;2022-08-30T12:05:48;3.60;;;1.40;;
64291;SDS011;50628;51.008;13.658;2022-08-30T12:10:54;5.25;;;1.83;;
64291;SDS011;50628;51.008;13.658;2022-08-30T12:15:58;5.88;;;1.88;;
64291;SDS011;50628;51.008;13.658;2022-08-30T12:21:07;9.52;;;3.85;;
64291;SDS011;50628;51.008;13.658;2022-08-30T12:26:16;4.18;;;2.05;;
64291;SDS011;50628;51.008;13.658;2022-08-30T12:31:24;8.20;;;2.28;;
64291;SDS011;50628;51.008;13.658;2022-08-30T12:36:32;5.32;;;2.08;;
64291;SDS011;50628;51.008;13.658;2022-08-30T12:41:38;16.40;;;2.97;;
64291;SDS011;50628;51.008;13.658;2022-08-30T12:46:42;7.18;;;1.70;;
64291;SDS011;50628;51.008;13.658;2022-08-30T12:51:48;3.72;;;1.75;;
64291;SDS011;50628;51.008;13.658;2022-08-30T12:56:52;4.07;;;2.03;;
64291;SDS011;50628;51.008;13.658;2022-08-30T13:02:04;5.93;;;2.60;;
64291;SDS011;50628;51.008;13.658;2022-08-30T13:07:10;6.47;;;2.60;;
64291;SDS011;50628;51.008;13.658;2022-08-30T13:12:19;6.28;;;2.35;;
64291;SDS011;50628;51.008;13.658;2022-08-30T13:17:24;4.30;;;2.97;;
64291;SDS011;50628;51.008;13.658;2022-08-30T13:22:30;8.05;;;2.85;;
64291;SDS011;50628;51.008;13.658;2022-08-30T13:27:34;6.57;;;3.40;;
64291;SDS011;50628;51.008;13.658;2022-08-30T13:33:01;6.65;;;2.80;;
64291;SDS011;50628;51.008;13.658;2022-08-30T13:38:04;6.28;;;2.55;;
64291;SDS011;50628;51.008;13.658;2022-08-30T13:43:09;6.25;;;2.10;;
64291;SDS011;50628;51.008;13.658;2022-08-30T13:48:11;4.88;;;2.50;;
64291;SDS011;50628;51.008;13.658;2022-08-30T13:53:16;5.72;;;3.15;;
64291;SDS011;50628;51.008;13.658;2022-08-30T13:58:18;4.40;;;2.05;;
64291;SDS011;50628;51.008;13.658;2022-08-30T14:03:20;3.85;;;2.40;;
64291;SDS011;50628;51.008;13.658;2022-08-30T14:08:24;9.48;;;2.45;;
64291;SDS011;50628;51.008;13.658;2022-08-30T14:13:28;3.80;;;2.00;;
64291;SDS011;50628;51.008;13.658;2022-08-30T14:18:30;3.17;;;2.05;;
64291;SDS011;50628;51.008;13.658;2022-08-30T14:23:33;4.85;;;2.10;;
64291;SDS011;50628;51.008;13.658;2022-08-30T14:28:35;6.63;;;2.00;;
64291;SDS011;50628;51.008;13.658;2022-08-30T14:33:36;4.22;;;1.73;;
64291;SDS011;50628;51.008;13.658;2022-08-30T14:38:40;3.42;;;1.52;;
64291;SDS011;50628;51.008;13.658;2022-08-30T14:43:42;5.90;;;1.92;;
64291;SDS011;50628;51.008;13.658;2022-08-30T14:48:43;5.78;;;2.00;;
64291;SDS011;50628;51.008;13.658;2022-08-30T14:53:49;4.50;;;2.25;;
64291;SDS011;50628;51.008;13.658;2022-08-30T14:58:52;5.95;;;1.92;;
64291;SDS011;50628;51.008;13.658;2022-08-30T15:03:59;4.72;;;1.55;;
64291;SDS011;50628;51.008;13.658;2022-08-30T15:09:02;2.83;;;1.70;;
64291;SDS011;50628;51.008;13.658;2022-08-30T15:14:05;4.30;;;1.73;;
64291;SDS011;50628;51.008;13.658;2022-08-30T15:19:07;4.60;;;1.90;;
64291;SDS011;50628;51.008;13.658;2022-08-30T15:24:13;4.68;;;2.80;;
64291;SDS011;50628;51.008;13.658;2022-08-30T15:29:16;4.80;;;1.52;;
64291;SDS011;50628;51.008;13.658;2022-08-30T15:34:21;5.85;;;1.98;;
64291;SDS011;50628;51.008;13.658;2022-08-30T15:39:25;6.50;;;2.15;;
64291;SDS011;50628;51.008;13.658;2022-08-30T15:44:27;2.22;;;1.52;;
64291;SDS011;50628;51.008;13.658;2022-08-30T15:49:29;3.05;;;1.50;;
64291;SDS011;50628;51.008;13.658;2022-08-30T15:54:33;5.32;;;2.33;;
64291;SDS011;50628;51.008;13.658;2022-08-30T15:59:35;5.95;;;1.77;;
64291;SDS011;50628;51.008;13.658;2022-08-30T16:04:36;9.45;;;2.25;;
64291;SDS011;50628;51.008;13.658;2022-08-30T16:09:39;7.68;;;1.95;;
64291;SDS011;50628;51.008;13.658;2022-08-30T16:14:41;17.48;;;2.80;;
64291;SDS011;50628;51.008;13.658;2022-08-30T16:19:43;23.27;;;3.88;;
64291;SDS011;50628;51.008;13.658;2022-08-30T16:24:46;6.65;;;2.17;;
64291;SDS011;50628;51.008;13.658;2022-08-30T16:29:48;5.53;;;2.03;;
64291;SDS011;50628;51.008;13.658;2022-08-30T16:34:50;3.92;;;2.13;;
64291;SDS011;50628;51.008;13.658;2022-08-30T16:39:53;3.35;;;1.90;;
64291;SDS011;50628;51.008;13.658;2022-08-30T16:44:55;3.22;;;1.80;;
64291;SDS011;50628;51.008;13.658;2022-08-30T16:49:57;4.18;;;1.77;;
64291;SDS011;50628;51.008;13.658;2022-08-30T16:55:01;3.92;;;1.65;;
64291;SDS011;50628;51.008;13.658;2022-08-30T17:00:04;3.65;;;1.83;;
64291;SDS011;50628;51.008;13.658;2022-08-30T17:05:07;3.70;;;2.10;;
64291;SDS011;50628;51.008;13.658;2022-08-30T17:10:10;2.20;;;1.98;;
64291;SDS011;50628;51.008;13.658;2022-08-30T17:15:13;2.85;;;2.08;;
64291;SDS011;50628;51.008;13.658;2022-08-30T17:20:15;8.75;;;4.38;;
64291;SDS011;50628;51.008;13.658;2022-08-30T17:25:19;9.95;;;5.28;;
64291;SDS011;50628;51.008;13.658;2022-08-30T17:30:20;11.95;;;6.07;;
64291;SDS011;50628;51.008;13.658;2022-08-30T17:35:22;6.28;;;3.72;;
64291;SDS011;50628;51.008;13.658;2022-08-30T17:40:26;4.70;;;2.03;;
64291;SDS011;50628;51.008;13.658;2022-08-30T17:45:28;5.18;;;1.70;;
64291;SDS011;50628;51.008;13.658;2022-08-30T17:50:29;5.60;;;1.95;;
64291;SDS011;50628;51.008;13.658;2022-08-30T17:55:32;14.35;;;10.80;;
64291;SDS011;50628;51.008;13.658;2022-08-30T18:00:34;4.18;;;2.53;;
64291;SDS011;50628;51.008;13.658;2022-08-30T18:05:36;6.38;;;2.67;;
64291;SDS011;50628;51.008;13.658;2022-08-30T18:10:39;5.05;;;1.98;;
64291;SDS011;50628;51.008;13.658;2022-08-30T18:15:41;3.33;;;2.17;;
64291;SDS011;50628;51.008;13.658;2022-08-30T18:20:42;6.78;;;3.00;;
64291;SDS011;50628;51.008;13.658;2022-08-30T18:25:50;3.97;;;2.20;;
64291;SDS011;50628;51.008;13.658;2022-08-30T18:30:55;2.67;;;1.77;;
64291;SDS011;50628;51.008;13.658;2022-08-30T18:35:57;3.25;;;2.05;;
64291;SDS011;50628;51.008;13.658;2022-08-30T18:41:01;6.80;;;2.00;;
64291;SDS011;50628;51.008;13.658;2022-08-30T18:46:06;5.07;;;2.58;;
64291;SDS011;50628;51.008;13.658;2022-08-30T18:51:09;3.65;;;1.90;;
64291;SDS011;50628;51.008;13.658;2022-08-30T18:56:13;4.60;;;1.92;;
64291;SDS011;50628;51.008;13.658;2022-08-30T19:01:16;4.90;;;2.28;;
64291;SDS011;50628;51.008;13.658;2022-08-30T19:06:18;4.85;;;2.55;;
64291;SDS011;50628;51.008;13.658;2022-08-30T19:11:21;4.43;;;2.45;;
64291;SDS011;50628;51.008;13.658;2022-08-30T19:16:23;5.35;;;2.25;;
64291;SDS011;50628;51.008;13.658;2022-08-30T19:21:25;4.43;;;2.70;;
64291;SDS011;50628;51.008;13.658;2022-08-30T19:26:28;8.90;;;3.60;;
64291;SDS011;50628;51.008;13.658;2022-08-30T19:31:30;6.32;;;3.35;;
64291;SDS011;50628;51.008;13.658;2022-08-30T19:36:32;8.13;;;3.72;;
64291;SDS011;50628;51.008;13.658;2022-08-30T19:41:35;6.93;;;3.42;;
64291;SDS011;50628;51.008;13.658;2022-08-30T19:46:37;6.15;;;3.92;;
64291;SDS011;50628;51.008;13.658;2022-08-30T19:51:38;4.80;;;3.03;;
64291;SDS011;50628;51.008;13.658;2022-08-30T19:56:41;7.43;;;3.22;;
64291;SDS011;50628;51.008;13.658;2022-08-30T20:01:43;6.47;;;3.13;;
64291;SDS011;50628;51.008;13.658;2022-08-30T20:06:45;4.68;;;2.65;;
64291;SDS011;50628;51.008;13.658;2022-08-30T20:11:48;4.82;;;3.08;;
64291;SDS011;50628;51.008;13.658;2022-08-30T20:16:50;13.80;;;4.28;;
64291;SDS011;50628;51.008;13.658;2022-08-30T20:21:52;7.18;;;2.60;;
64291;SDS011;50628;51.008;13.658;2022-08-30T20:26:55;5.30;;;2.80;;
64291;SDS011;50628;51.008;13.658;2022-08-30T20:31:57;6.40;;;2.80;;
64291;SDS011;50628;51.008;13.658;2022-08-30T20:37:00;6.57;;;3.10;;
64291;SDS011;50628;51.008;13.658;2022-08-30T20:42:04;8.13;;;3.58;;
64291;SDS011;50628;51.008;13.658;2022-08-30T20:47:06;6.43;;;3.28;;
64291;SDS011;50628;51.008;13.658;2022-08-30T20:52:08;7.22;;;3.80;;
64291;SDS011;50628;51.008;13.658;2022-08-30T20:57:11;5.90;;;3.80;;
64291;SDS011;50628;51.008;13.658;2022-08-30T21:02:14;9.20;;;4.10;;
64291;SDS011;50628;51.008;13.658;2022-08-30T21:07:15;13.20;;;7.68;;
64291;SDS011;50628;51.008;13.658;2022-08-30T21:12:18;5.57;;;3.72;;
64291;SDS011;50628;51.008;13.658;2022-08-30T21:17:21;6.00;;;3.53;;
64291;SDS011;50628;51.008;13.658;2022-08-30T21:22:23;4.18;;;3.20;;
64291;SDS011;50628;51.008;13.658;2022-08-30T21:27:27;4.88;;;4.03;;
64291;SDS011;50628;51.008;13.658;2022-08-30T21:32:28;7.43;;;3.65;;
64291;SDS011;50628;51.008;13.658;2022-08-30T21:37:30;6.63;;;4.38;;
64291;SDS011;50628;51.008;13.658;2022-08-30T21:42:33;6.70;;;4.18;;
64291;SDS011;50628;51.008;13.658;2022-08-30T21:47:38;5.90;;;3.85;;
64291;SDS011;50628;51.008;13.658;2022-08-30T21:52:41;7.95;;;4.60;;
64291;SDS011;50628;51.008;13.658;2022-08-30T21:57:44;8.85;;;3.80;;
64291;SDS011;50628;51.008;13.658;2022-08-30T22:02:46;4.95;;;3.35;;
64291;SDS011;50628;51.008;13.658;2022-08-30T22:07:48;5.75;;;3.85;;
64291;SDS011;50628;51.008;13.658;2022-08-30T22:12:51;5.85;;;4.45;;
64291;SDS011;50628;51.008;13.658;2022-08-30T22:17:52;5.20;;;4.57;;
64291;SDS011;50628;51.008;13.658;2022-08-30T22:22:54;7.47;;;4.57;;
64291;SDS011;50628;51.008;13.658;2022-08-30T22:27:57;6.70;;;4.18;;
64291;SDS011;50628;51.008;13.658;2022-08-30T22:32:59;6.68;;;4.32;;
64291;SDS011;50628;51.008;13.658;2022-08-30T22:38:01;7.78;;;4.47;;
64291;SDS011;50628;51.008;13.658;2022-08-30T22:43:05;7.72;;;4.53;;
64291;SDS011;50628;51.008;13.658;2022-08-30T22:48:07;6.07;;;4.30;;
64291;SDS011;50628;51.008;13.658;2022-08-30T22:53:09;5.60;;;4.03;;
64291;SDS011;50628;51.008;13.658;2022-08-30T22:58:12;5.77;;;3.77;;
64291;SDS011;50628;51.008;13.658;2022-08-30T23:03:14;7.30;;;4.50;;
64291;SDS011;50628;51.008;13.658;2022-08-30T23:08:16;6.60;;;4.00;;
64291;SDS011;50628;51.008;13.658;2022-08-30T23:13:19;5.60;;;4.73;;
64291;SDS011;50628;51.008;13.658;2022-08-30T23:18:20;7.38;;;4.20;;
64291;SDS011;50628;51.008;13.658;2022-08-30T23:23:22;8.53;;;4.43;;
64291;SDS011;50628;51.008;13.658;2022-08-30T23:28:43;8.17;;;4.97;;
64291;SDS011;50628;51.008;13.658;2022-08-30T23:34:02;6.93;;;3.90;;
64291;SDS011;50628;51.008;13.658;2022-08-30T23:39:21;4.10;;;3.70;;
64291;SDS011;50628;51.008;13.658;2022-08-30T23:44:42;6.00;;;3.77;;
64291;SDS011;50628;51.008;13.658;2022-08-30T23:50:01;10.47;;;4.23;;
64291;SDS011;50628;51.008;13.658;2022-08-30T23:55:21;6.73;;;4.63;;
